sensor_id;sensor_type;location;lat;lon;timestamp;pressure;altitude;pressure_sealevel;temperature;humidity
64711;BME280;51139;45.626;6.850;2024-01-27T07:59:06;83051.91;;;0.55;100.00
64711;BME280;51139;45.626;6.850;2024-01-27T08:01:38;83052.78;;;1.01;100.00
64711;BME280;51139;45.626;6.850;2024-01-27T08:04:04;83050.94;;;1.30;100.00
64711;BME280;51139;45.626;6.850;2024-01-27T08:06:29;83052.88;;;1.41;100.00
64711;BME280;51139;45.626;6.850;2024-01-27T08:08:55;83054.31;;;1.59;100.00
64711;BME280;51139;45.626;6.850;2024-01-27T08:11:21;83049.09;;;2.05;100.00
64711;BME280;51139;45.626;6.850;2024-01-27T08:13:46;83040.53;;;2.22;100.00
64711;BME280;51139;45.626;6.850;2024-01-27T08:16:12;83047.63;;;2.50;100.00
64711;BME280;51139;45.626;6.850;2024-01-27T08:18:41;83047.63;;;2.55;100.00
64711;BME280;51139;45.626;6.850;2024-01-27T08:21:10;83058.16;;;3.03;100.00
64711;BME280;51139;45.626;6.850;2024-01-27T08:23:37;83054.50;;;3.29;100.00
64711;BME280;51139;45.626;6.850;2024-01-27T08:26:03;83054.97;;;3.27;100.00
64711;BME280;51139;45.626;6.850;2024-01-27T08:28:28;83052.47;;;3.52;100.00
64711;BME280;51139;45.626;6.850;2024-01-27T08:30:53;83068.25;;;3.88;82.18
64711;BME280;51139;45.626;6.850;2024-01-27T08:33:19;83061.78;;;4.26;83.02
64711;BME280;51139;45.626;6.850;2024-01-27T08:35:48;83069.78;;;4.39;75.19
64711;BME280;51139;45.626;6.850;2024-01-27T08:38:14;83071.53;;;4.86;70.37
64711;BME280;51139;45.626;6.850;2024-01-27T08:40:39;83065.59;;;5.30;67.09
64711;BME280;51139;45.626;6.850;2024-01-27T08:43:05;83058.53;;;5.44;60.06
64711;BME280;51139;45.626;6.850;2024-01-27T08:45:31;83063.78;;;5.44;62.65
64711;BME280;51139;45.626;6.850;2024-01-27T08:47:57;83055.78;;;6.45;56.50
64711;BME280;51139;45.626;6.850;2024-01-27T08:50:22;83056.72;;;6.61;54.35
64711;BME280;51139;45.626;6.850;2024-01-27T08:52:47;83052.16;;;7.35;51.44
64711;BME280;51139;45.626;6.850;2024-01-27T08:55:13;83051.81;;;8.27;49.46
64711;BME280;51139;45.626;6.850;2024-01-27T08:57:39;83054.91;;;8.04;47.32
64711;BME280;51139;45.626;6.850;2024-01-27T09:00:05;83063.34;;;7.89;46.35
64711;BME280;51139;45.626;6.850;2024-01-27T09:02:30;83060.19;;;8.95;44.62
64711;BME280;51139;45.626;6.850;2024-01-27T09:04:56;83055.81;;;8.76;41.42
64711;BME280;51139;45.626;6.850;2024-01-27T09:07:21;83049.53;;;9.29;40.21
64711;BME280;51139;45.626;6.850;2024-01-27T09:09:47;83057.13;;;9.33;37.91
64711;BME280;51139;45.626;6.850;2024-01-27T09:12:12;83056.16;;;9.81;34.84
64711;BME280;51139;45.626;6.850;2024-01-27T09:14:38;83059.44;;;10.02;32.82
64711;BME280;51139;45.626;6.850;2024-01-27T09:17:03;83067.25;;;8.57;34.12
64711;BME280;51139;45.626;6.850;2024-01-27T09:19:29;83070.78;;;10.11;34.41
64711;BME280;51139;45.626;6.850;2024-01-27T09:21:54;83071.91;;;10.91;34.58
64711;BME280;51139;45.626;6.850;2024-01-27T09:24:20;83070.28;;;12.20;36.80
64711;BME280;51139;45.626;6.850;2024-01-27T09:26:45;83078.44;;;10.90;37.63
64711;BME280;51139;45.626;6.850;2024-01-27T09:29:11;83078.00;;;12.49;34.34
64711;BME280;51139;45.626;6.850;2024-01-27T09:31:36;83078.41;;;12.22;29.74
64711;BME280;51139;45.626;6.850;2024-01-27T09:34:01;83080.97;;;11.34;32.11
64711;BME280;51139;45.626;6.850;2024-01-27T09:36:27;83088.69;;;12.74;32.06
64711;BME280;51139;45.626;6.850;2024-01-27T09:38:53;83081.56;;;13.51;28.78
64711;BME280;51139;45.626;6.850;2024-01-27T09:41:19;83088.69;;;12.25;32.70
64711;BME280;51139;45.626;6.850;2024-01-27T09:43:46;83091.00;;;11.98;34.04
64711;BME280;51139;45.626;6.850;2024-01-27T09:46:12;83078.50;;;11.60;33.00
64711;BME280;51139;45.626;6.850;2024-01-27T09:48:38;83073.84;;;11.99;31.70
64711;BME280;51139;45.626;6.850;2024-01-27T09:51:04;83077.09;;;12.95;31.12
64711;BME280;51139;45.626;6.850;2024-01-27T09:53:30;83080.41;;;13.03;31.90
64711;BME280;51139;45.626;6.850;2024-01-27T09:55:58;83075.31;;;11.46;33.21
64711;BME280;51139;45.626;6.850;2024-01-27T09:58:28;83072.28;;;12.04;34.10
64711;BME280;51139;45.626;6.850;2024-01-27T10:00:59;83073.66;;;13.35;32.02
64711;BME280;51139;45.626;6.850;2024-01-27T10:03:26;83074.13;;;15.43;30.85
64711;BME280;51139;45.626;6.850;2024-01-27T10:05:53;83070.47;;;14.93;29.66
64711;BME280;51139;45.626;6.850;2024-01-27T10:08:20;83076.50;;;15.76;28.73
64711;BME280;51139;45.626;6.850;2024-01-27T10:10:46;83073.38;;;15.05;29.02
64711;BME280;51139;45.626;6.850;2024-01-27T10:13:14;83081.31;;;14.42;32.49
64711;BME280;51139;45.626;6.850;2024-01-27T10:15:42;83074.66;;;15.69;31.79
64711;BME280;51139;45.626;6.850;2024-01-27T10:18:08;83074.72;;;13.32;26.68
64711;BME280;51139;45.626;6.850;2024-01-27T10:20:39;83075.28;;;12.08;28.66
64711;BME280;51139;45.626;6.850;2024-01-27T10:23:13;83090.47;;;13.12;30.13
64711;BME280;51139;45.626;6.850;2024-01-27T10:25:39;83085.84;;;12.23;32.73
64711;BME280;51139;45.626;6.850;2024-01-27T10:28:08;83090.31;;;11.28;34.47
64711;BME280;51139;45.626;6.850;2024-01-27T10:30:34;83095.13;;;11.52;32.99
64711;BME280;51139;45.626;6.850;2024-01-27T10:32:59;83096.19;;;10.58;34.69
64711;BME280;51139;45.626;6.850;2024-01-27T10:35:25;83104.88;;;9.56;35.82
64711;BME280;51139;45.626;6.850;2024-01-27T10:37:52;83098.06;;;8.76;36.73
64711;BME280;51139;45.626;6.850;2024-01-27T10:40:18;83103.56;;;7.28;40.58
64711;BME280;51139;45.626;6.850;2024-01-27T10:42:44;83102.34;;;8.31;40.75
64711;BME280;51139;45.626;6.850;2024-01-27T10:45:11;83091.41;;;8.61;39.30
64711;BME280;51139;45.626;6.850;2024-01-27T10:47:38;83096.47;;;8.94;40.02
64711;BME280;51139;45.626;6.850;2024-01-27T10:50:08;83086.69;;;9.82;38.04
64711;BME280;51139;45.626;6.850;2024-01-27T10:52:38;83089.50;;;8.62;40.14
64711;BME280;51139;45.626;6.850;2024-01-27T10:55:07;83089.31;;;9.02;41.29
64711;BME280;51139;45.626;6.850;2024-01-27T10:57:33;83088.19;;;9.98;39.56
64711;BME280;51139;45.626;6.850;2024-01-27T11:00:00;83083.75;;;10.30;37.02
64711;BME280;51139;45.626;6.850;2024-01-27T11:02:31;83086.31;;;9.48;37.35
64711;BME280;51139;45.626;6.850;2024-01-27T11:04:58;83089.72;;;10.22;38.44
64711;BME280;51139;45.626;6.850;2024-01-27T11:07:25;83088.06;;;9.75;38.98
64711;BME280;51139;45.626;6.850;2024-01-27T11:09:50;83091.19;;;9.66;36.14
64711;BME280;51139;45.626;6.850;2024-01-27T11:12:22;83080.72;;;9.60;36.51
64711;BME280;51139;45.626;6.850;2024-01-27T11:14:48;83089.00;;;9.85;38.06
64711;BME280;51139;45.626;6.850;2024-01-27T11:17:15;83086.38;;;9.56;39.81
64711;BME280;51139;45.626;6.850;2024-01-27T11:19:41;83080.16;;;9.54;38.97
64711;BME280;51139;45.626;6.850;2024-01-27T11:22:06;83076.47;;;9.86;35.65
64711;BME280;51139;45.626;6.850;2024-01-27T11:24:32;83082.53;;;9.15;36.71
64711;BME280;51139;45.626;6.850;2024-01-27T11:27:04;83074.72;;;8.32;40.34
64711;BME280;51139;45.626;6.850;2024-01-27T11:29:32;83088.44;;;9.50;38.80
64711;BME280;51139;45.626;6.850;2024-01-27T11:32:01;83084.66;;;9.38;38.65
64711;BME280;51139;45.626;6.850;2024-01-27T11:34:43;83086.16;;;9.04;40.70
64711;BME280;51139;45.626;6.850;2024-01-27T11:37:16;83084.03;;;9.82;40.46
64711;BME280;51139;45.626;6.850;2024-01-27T11:39:42;83090.66;;;10.04;38.70
64711;BME280;51139;45.626;6.850;2024-01-27T11:42:09;83087.16;;;9.72;38.05
64711;BME280;51139;45.626;6.850;2024-01-27T11:44:37;83095.84;;;9.52;37.86
64711;BME280;51139;45.626;6.850;2024-01-27T11:47:03;83094.88;;;9.62;37.27
64711;BME280;51139;45.626;6.850;2024-01-27T11:49:30;83092.19;;;9.91;38.75
64711;BME280;51139;45.626;6.850;2024-01-27T11:51:55;83104.84;;;9.27;41.80
64711;BME280;51139;45.626;6.850;2024-01-27T11:54:21;83105.94;;;9.32;40.80
64711;BME280;51139;45.626;6.850;2024-01-27T11:56:46;83098.53;;;9.30;39.19
64711;BME280;51139;45.626;6.850;2024-01-27T11:59:12;83105.97;;;8.55;40.89
64711;BME280;51139;45.626;6.850;2024-01-27T12:01:37;83107.88;;;9.31;41.10
64711;BME280;51139;45.626;6.850;2024-01-27T12:04:07;83099.69;;;9.22;41.14
64711;BME280;51139;45.626;6.850;2024-01-27T12:06:33;83098.09;;;9.18;39.95
64711;BME280;51139;45.626;6.850;2024-01-27T12:08:58;83097.44;;;8.83;38.89
64711;BME280;51139;45.626;6.850;2024-01-27T12:11:27;83099.19;;;8.81;39.15
64711;BME280;51139;45.626;6.850;2024-01-27T12:13:53;83100.25;;;9.49;38.90
64711;BME280;51139;45.626;6.850;2024-01-27T12:16:19;83102.91;;;9.07;37.18
64711;BME280;51139;45.626;6.850;2024-01-27T12:18:45;83094.53;;;8.73;40.13
64711;BME280;51139;45.626;6.850;2024-01-27T12:21:10;83095.06;;;8.24;39.83
64711;BME280;51139;45.626;6.850;2024-01-27T12:23:36;83093.97;;;8.88;40.43
64711;BME280;51139;45.626;6.850;2024-01-27T12:26:01;83105.16;;;9.24;39.87
64711;BME280;51139;45.626;6.850;2024-01-27T12:28:27;83085.50;;;8.90;38.34
64711;BME280;51139;45.626;6.850;2024-01-27T12:30:53;83087.38;;;8.47;38.18
64711;BME280;51139;45.626;6.850;2024-01-27T12:33:19;83090.53;;;9.01;40.51
64711;BME280;51139;45.626;6.850;2024-01-27T12:35:49;83088.53;;;9.37;40.13
64711;BME280;51139;45.626;6.850;2024-01-27T12:38:14;83086.72;;;9.89;38.78
64711;BME280;51139;45.626;6.850;2024-01-27T12:40:40;83084.56;;;9.80;39.29
64711;BME280;51139;45.626;6.850;2024-01-27T12:43:05;83075.53;;;10.12;37.51
64711;BME280;51139;45.626;6.850;2024-01-27T12:45:31;83076.56;;;10.01;38.58
64711;BME280;51139;45.626;6.850;2024-01-27T12:48:00;83067.41;;;10.55;35.68
64711;BME280;51139;45.626;6.850;2024-01-27T12:50:25;83072.66;;;9.66;36.85
64711;BME280;51139;45.626;6.850;2024-01-27T12:52:51;83079.28;;;9.01;37.07
64711;BME280;51139;45.626;6.850;2024-01-27T12:55:16;83080.59;;;8.52;37.29
64711;BME280;51139;45.626;6.850;2024-01-27T12:57:43;83084.69;;;9.45;38.25
64711;BME280;51139;45.626;6.850;2024-01-27T13:00:09;83075.09;;;8.84;35.38
64711;BME280;51139;45.626;6.850;2024-01-27T13:02:36;83074.69;;;9.23;35.38
64711;BME280;51139;45.626;6.850;2024-01-27T13:05:02;83073.25;;;9.00;36.84
64711;BME280;51139;45.626;6.850;2024-01-27T13:07:27;83075.59;;;8.83;36.00
64711;BME280;51139;45.626;6.850;2024-01-27T13:09:53;83068.38;;;8.62;34.93
64711;BME280;51139;45.626;6.850;2024-01-27T13:12:18;83068.44;;;8.70;34.98
64711;BME280;51139;45.626;6.850;2024-01-27T13:14:44;83071.38;;;9.30;35.28
64711;BME280;51139;45.626;6.850;2024-01-27T13:17:09;83064.09;;;9.52;33.98
64711;BME280;51139;45.626;6.850;2024-01-27T13:19:35;83058.94;;;9.17;32.16
64711;BME280;51139;45.626;6.850;2024-01-27T13:22:00;83058.72;;;9.07;32.48
64711;BME280;51139;45.626;6.850;2024-01-27T13:24:26;83049.19;;;9.33;34.10
64711;BME280;51139;45.626;6.850;2024-01-27T13:26:51;83046.09;;;9.79;33.91
64711;BME280;51139;45.626;6.850;2024-01-27T13:29:17;83043.94;;;9.70;33.73
64711;BME280;51139;45.626;6.850;2024-01-27T13:31:42;83045.16;;;9.69;31.56
64711;BME280;51139;45.626;6.850;2024-01-27T13:34:07;83047.09;;;10.05;31.49
64711;BME280;51139;45.626;6.850;2024-01-27T13:36:33;83038.38;;;10.33;30.28
64711;BME280;51139;45.626;6.850;2024-01-27T13:38:59;83040.56;;;9.32;31.18
64711;BME280;51139;45.626;6.850;2024-01-27T13:41:25;83032.59;;;9.61;30.60
64711;BME280;51139;45.626;6.850;2024-01-27T13:43:50;83024.19;;;9.71;30.22
64711;BME280;51139;45.626;6.850;2024-01-27T13:46:16;83033.84;;;9.97;29.96
64711;BME280;51139;45.626;6.850;2024-01-27T13:48:42;83028.41;;;10.11;29.98
64711;BME280;51139;45.626;6.850;2024-01-27T13:51:07;83030.84;;;10.01;30.46
64711;BME280;51139;45.626;6.850;2024-01-27T13:53:33;83029.06;;;9.96;31.07
64711;BME280;51139;45.626;6.850;2024-01-27T13:55:58;83032.16;;;9.78;29.44
64711;BME280;51139;45.626;6.850;2024-01-27T13:58:25;83031.22;;;10.05;29.39
64711;BME280;51139;45.626;6.850;2024-01-27T14:00:51;83028.34;;;9.95;28.09
64711;BME280;51139;45.626;6.850;2024-01-27T14:03:17;83033.53;;;9.72;29.58
64711;BME280;51139;45.626;6.850;2024-01-27T14:05:42;83039.44;;;9.57;28.59
64711;BME280;51139;45.626;6.850;2024-01-27T14:08:08;83041.06;;;9.97;31.14
64711;BME280;51139;45.626;6.850;2024-01-27T14:10:36;83038.22;;;9.95;30.57
64711;BME280;51139;45.626;6.850;2024-01-27T14:13:01;83036.69;;;9.70;30.37
64711;BME280;51139;45.626;6.850;2024-01-27T14:15:30;83036.06;;;9.85;29.27
64711;BME280;51139;45.626;6.850;2024-01-27T14:17:55;83039.63;;;9.96;26.74
64711;BME280;51139;45.626;6.850;2024-01-27T14:20:21;83038.75;;;9.93;25.74
64711;BME280;51139;45.626;6.850;2024-01-27T14:22:46;83031.34;;;9.91;28.07
64711;BME280;51139;45.626;6.850;2024-01-27T14:25:12;83040.81;;;9.21;26.11
64711;BME280;51139;45.626;6.850;2024-01-27T14:27:37;83032.50;;;9.17;26.17
64711;BME280;51139;45.626;6.850;2024-01-27T14:30:03;83037.97;;;9.77;25.47
64711;BME280;51139;45.626;6.850;2024-01-27T14:32:29;83030.72;;;9.70;27.86
64711;BME280;51139;45.626;6.850;2024-01-27T14:34:54;83034.97;;;9.15;26.87
64711;BME280;51139;45.626;6.850;2024-01-27T14:37:20;83032.03;;;7.85;25.26
64711;BME280;51139;45.626;6.850;2024-01-27T14:39:45;83037.25;;;8.68;25.42
64711;BME280;51139;45.626;6.850;2024-01-27T14:42:15;83041.44;;;9.06;27.92
64711;BME280;51139;45.626;6.850;2024-01-27T14:44:43;83035.03;;;9.01;27.78
64711;BME280;51139;45.626;6.850;2024-01-27T14:47:10;83037.41;;;9.13;28.35
64711;BME280;51139;45.626;6.850;2024-01-27T14:49:36;83029.56;;;8.99;26.66
64711;BME280;51139;45.626;6.850;2024-01-27T14:52:06;83032.25;;;9.28;27.51
64711;BME280;51139;45.626;6.850;2024-01-27T14:54:34;83026.09;;;9.62;27.77
64711;BME280;51139;45.626;6.850;2024-01-27T14:57:02;83028.03;;;8.06;26.45
64711;BME280;51139;45.626;6.850;2024-01-27T14:59:28;83031.59;;;8.29;27.21
64711;BME280;51139;45.626;6.850;2024-01-27T15:01:54;83028.50;;;8.95;25.58
64711;BME280;51139;45.626;6.850;2024-01-27T15:04:19;83029.38;;;8.97;24.70
64711;BME280;51139;45.626;6.850;2024-01-27T15:06:45;83028.53;;;9.02;24.73
64711;BME280;51139;45.626;6.850;2024-01-27T15:09:11;83031.63;;;9.14;26.79
64711;BME280;51139;45.626;6.850;2024-01-27T15:11:40;83033.91;;;9.18;28.95
64711;BME280;51139;45.626;6.850;2024-01-27T15:14:06;83030.50;;;9.31;26.30
64711;BME280;51139;45.626;6.850;2024-01-27T15:16:35;83022.31;;;9.50;25.00
64711;BME280;51139;45.626;6.850;2024-01-27T15:19:01;83042.28;;;9.01;23.89
64711;BME280;51139;45.626;6.850;2024-01-27T15:21:27;83035.94;;;9.62;23.72
64711;BME280;51139;45.626;6.850;2024-01-27T15:23:55;83034.34;;;9.59;25.15
64711;BME280;51139;45.626;6.850;2024-01-27T15:26:20;83038.63;;;9.12;24.62
64711;BME280;51139;45.626;6.850;2024-01-27T15:28:46;83049.53;;;9.29;24.83
64711;BME280;51139;45.626;6.850;2024-01-27T15:31:12;83052.75;;;9.14;26.29
64711;BME280;51139;45.626;6.850;2024-01-27T15:33:38;83046.91;;;9.37;25.80
64711;BME280;51139;45.626;6.850;2024-01-27T15:36:04;83051.44;;;9.58;26.02
64711;BME280;51139;45.626;6.850;2024-01-27T15:38:29;83055.94;;;8.70;26.08
64711;BME280;51139;45.626;6.850;2024-01-27T15:40:55;83050.78;;;8.86;27.79
